Time;durP1;ratioP1;P1;durP2;ratioP2;P2;SDS_P1;SDS_P2;PMS_P1;PMS_P2;Temp;Humidity;BMP_temperature;BMP_pressure;BME280_temperature;BME280_humidity;BME280_pressure;Samples;Min_cycle;Max_cycle;Signal;HPM_P1;HPM_P2
2024/03/07 00:00:31;;;;;;;;;;;5.10;82.80;;;;;;5076876;28;19931;-60
2024/03/07 00:03:06;;;;;;;;;;;5.10;82.70;;;;;;5074668;28;19974;-60
2024/03/07 00:05:40;;;;;;;;;;;5.00;82.80;;;;;;5079652;28;19928;-60
2024/03/07 00:08:13;;;;;;;;;;;5.00;82.70;;;;;;5077721;28;20017;-59
2024/03/07 00:10:46;;;;;;;;;;;5.00;82.70;;;;;;5074475;28;20023;-60
2024/03/07 00:13:13;;;;;;;;;;;5.00;82.80;;;;;;5077061;28;20919;-61
2024/03/07 00:15:46;;;;;;;;;;;5.00;82.80;;;;;;5075630;28;20023;-59
2024/03/07 00:18:20;;;;;;;;;;;4.90;82.70;;;;;;5073645;28;19938;-60
2024/03/07 00:20:54;;;;;;;;;;;4.90;82.90;;;;;;5074492;28;19936;-61
2024/03/07 00:23:27;;;;;;;;;;;4.80;83.00;;;;;;5076352;28;19924;-60
2024/03/07 00:26:00;;;;;;;;;;;4.80;83.10;;;;;;5068739;28;19931;-61
2024/03/07 00:28:38;;;;;;;;;;;4.80;83.00;;;;;;5076644;28;19931;-60
2024/03/07 00:31:12;;;;;;;;;;;4.70;83.00;;;;;;5075309;28;19930;-60
2024/03/07 00:33:46;;;;;;;;;;;4.70;83.10;;;;;;5077012;28;19924;-59
2024/03/07 00:36:21;;;;;;;;;;;4.70;83.00;;;;;;5078225;28;20001;-60
2024/03/07 00:38:54;;;;;;;;;;;4.70;83.00;;;;;;5075560;28;19935;-60
2024/03/07 00:41:27;;;;;;;;;;;4.70;82.90;;;;;;5074383;28;19967;-59
2024/03/07 00:44:00;;;;;;;;;;;4.70;82.90;;;;;;5076033;28;19928;-59
2024/03/07 00:46:33;;;;;;;;;;;4.60;83.00;;;;;;5077762;28;19947;-57
2024/03/07 00:49:07;;;;;;;;;;;4.50;83.20;;;;;;5076957;28;19924;-61
2024/03/07 00:51:41;;;;;;;;;;;4.50;83.10;;;;;;5076104;28;19928;-61
2024/03/07 00:54:14;;;;;;;;;;;4.50;83.00;;;;;;5076477;28;19986;-59
2024/03/07 00:56:48;;;;;;;;;;;4.50;83.10;;;;;;5074403;28;19936;-60
2024/03/07 00:59:22;;;;;;;;;;;4.60;83.00;;;;;;5074711;28;20058;-59
2024/03/07 01:01:55;;;;;;;;;;;4.60;82.90;;;;;;5073327;28;20029;-59
2024/03/07 01:04:31;;;;;;;;;;;4.50;83.20;;;;;;5076900;28;20023;-60
2024/03/07 01:07:04;;;;;;;;;;;4.40;82.90;;;;;;5076485;28;20420;-57
2024/03/07 01:09:44;;;;;;;;;;;4.40;83.00;;;;;;5074512;28;19955;-59
2024/03/07 01:12:19;;;;;;;;;;;4.30;83.10;;;;;;5074188;28;19925;-58
2024/03/07 01:14:52;;;;;;;;;;;4.30;83.20;;;;;;5076715;28;19968;-58
2024/03/07 01:17:30;;;;;;;;;;;4.40;83.00;;;;;;5073916;28;19965;-58
2024/03/07 01:20:05;;;;;;;;;;;4.30;83.10;;;;;;5075452;28;19928;-58
2024/03/07 01:22:38;;;;;;;;;;;4.30;82.90;;;;;;5075389;28;19931;-59
2024/03/07 01:25:12;;;;;;;;;;;4.20;83.10;;;;;;5075524;28;19940;-59
2024/03/07 01:27:47;;;;;;;;;;;4.20;83.00;;;;;;5070472;28;19929;-59
2024/03/07 01:30:22;;;;;;;;;;;4.20;83.00;;;;;;5075780;28;19949;-59
2024/03/07 01:32:56;;;;;;;;;;;4.20;82.80;;;;;;5075243;28;20026;-58
2024/03/07 01:35:30;;;;;;;;;;;4.20;82.90;;;;;;5074849;28;19962;-57
2024/03/07 01:38:04;;;;;;;;;;;4.20;82.70;;;;;;5073150;28;19931;-59
2024/03/07 01:40:37;;;;;;;;;;;4.20;82.80;;;;;;5075691;28;20013;-59
2024/03/07 01:43:10;;;;;;;;;;;4.20;82.70;;;;;;5075031;28;19974;-59
2024/03/07 01:45:44;;;;;;;;;;;4.10;82.70;;;;;;5075518;28;20000;-59
2024/03/07 01:48:21;;;;;;;;;;;4.00;82.80;;;;;;5076055;28;19957;-58
2024/03/07 01:50:56;;;;;;;;;;;4.00;82.80;;;;;;5076243;28;19932;-58
2024/03/07 01:53:29;;;;;;;;;;;4.00;82.70;;;;;;5074361;28;20044;-58
2024/03/07 01:56:03;;;;;;;;;;;4.00;82.50;;;;;;5075364;28;19928;-59
2024/03/07 01:58:43;;;;;;;;;;;3.90;82.60;;;;;;5075193;28;19966;-59
2024/03/07 02:01:17;;;;;;;;;;;3.80;82.70;;;;;;5075014;28;19932;-58
2024/03/07 02:03:50;;;;;;;;;;;3.80;82.90;;;;;;5072856;28;19942;-59
2024/03/07 02:06:31;;;;;;;;;;;3.80;83.00;;;;;;5073806;28;19925;-58
2024/03/07 02:09:05;;;;;;;;;;;3.80;83.00;;;;;;5074810;28;19928;-58
2024/03/07 02:11:38;;;;;;;;;;;3.70;82.80;;;;;;5075774;28;20466;-59
2024/03/07 02:14:05;;;;;;;;;;;3.80;82.80;;;;;;5074168;28;20571;-58
2024/03/07 02:16:39;;;;;;;;;;;3.70;82.80;;;;;;5075710;28;19924;-59
2024/03/07 02:19:14;;;;;;;;;;;3.70;82.80;;;;;;5074892;28;19967;-60
2024/03/07 02:21:48;;;;;;;;;;;3.70;82.70;;;;;;5078957;28;20341;-60
2024/03/07 02:24:23;;;;;;;;;;;3.60;82.80;;;;;;5077473;28;19936;-59
2024/03/07 02:26:56;;;;;;;;;;;3.60;82.80;;;;;;5077186;28;20010;-58
2024/03/07 02:29:30;;;;;;;;;;;3.60;82.70;;;;;;5078129;28;19939;-60
2024/03/07 02:32:03;;;;;;;;;;;3.60;82.80;;;;;;5078146;28;19942;-60
2024/03/07 02:34:36;;;;;;;;;;;3.50;82.80;;;;;;5078465;28;19928;-60
2024/03/07 02:37:10;;;;;;;;;;;3.50;82.80;;;;;;5078894;28;20759;-59
2024/03/07 02:39:45;;;;;;;;;;;3.50;82.70;;;;;;5080027;28;19928;-59
2024/03/07 02:42:19;;;;;;;;;;;3.50;82.70;;;;;;5078578;28;19924;-60
2024/03/07 02:44:53;;;;;;;;;;;3.50;82.70;;;;;;5077850;28;19954;-59
2024/03/07 02:47:26;;;;;;;;;;;3.50;82.60;;;;;;5077891;28;19986;-60
2024/03/07 02:49:59;;;;;;;;;;;3.50;82.60;;;;;;5079132;28;19978;-60
2024/03/07 02:52:33;;;;;;;;;;;3.40;82.60;;;;;;5079114;28;19932;-60
2024/03/07 02:55:10;;;;;;;;;;;3.40;82.60;;;;;;5073714;28;19990;-60
2024/03/07 02:57:43;;;;;;;;;;;3.40;82.60;;;;;;5076503;28;19970;-60
2024/03/07 03:00:20;;;;;;;;;;;3.40;82.50;;;;;;5076492;28;19927;-59
2024/03/07 03:02:54;;;;;;;;;;;3.30;82.60;;;;;;5076698;28;20014;-60
2024/03/07 03:05:27;;;;;;;;;;;3.30;82.40;;;;;;5078888;28;20359;-61
2024/03/07 03:08:01;;;;;;;;;;;3.40;82.40;;;;;;5078900;28;20010;-60
2024/03/07 03:10:36;;;;;;;;;;;3.40;82.50;;;;;;5076775;28;19932;-60
2024/03/07 03:13:09;;;;;;;;;;;3.40;82.60;;;;;;5075354;28;19928;-59
2024/03/07 03:15:42;;;;;;;;;;;3.40;82.70;;;;;;5078383;28;19966;-60
2024/03/07 03:18:15;;;;;;;;;;;3.30;82.70;;;;;;5076169;28;19947;-58
2024/03/07 03:20:49;;;;;;;;;;;3.40;82.70;;;;;;5076589;28;19981;-60
2024/03/07 03:23:23;;;;;;;;;;;3.30;82.70;;;;;;5077500;28;20299;-61
2024/03/07 03:25:50;;;;;;;;;;;3.30;82.90;;;;;;5077254;28;19940;-59
2024/03/07 03:28:23;;;;;;;;;;;3.40;82.60;;;;;;5076106;28;20015;-63
2024/03/07 03:30:56;;;;;;;;;;;3.40;82.60;;;;;;5075743;28;19978;-63
2024/03/07 03:37:05;;;;;;;;;;;3.30;82.60;;;;;;5072936;28;19926;-63
2024/03/07 03:39:42;;;;;;;;;;;3.30;82.80;;;;;;5075956;28;20328;-61
2024/03/07 03:42:15;;;;;;;;;;;3.30;82.90;;;;;;5077015;28;19924;-63
2024/03/07 03:44:49;;;;;;;;;;;3.20;83.00;;;;;;5074580;28;20003;-60
2024/03/07 03:47:22;;;;;;;;;;;3.20;83.10;;;;;;5075292;28;19937;-62
2024/03/07 03:49:55;;;;;;;;;;;3.20;83.10;;;;;;5071733;28;19932;-63
2024/03/07 03:52:28;;;;;;;;;;;3.20;83.20;;;;;;5076624;28;20022;-63
2024/03/07 03:55:05;;;;;;;;;;;3.10;83.20;;;;;;5078162;28;19936;-61
2024/03/07 03:57:33;;;;;;;;;;;3.10;83.20;;;;;;5075031;28;19928;-63
2024/03/07 04:00:12;;;;;;;;;;;3.10;83.20;;;;;;5076515;28;19947;-62
2024/03/07 04:02:47;;;;;;;;;;;3.20;83.00;;;;;;5077722;28;19929;-64
2024/03/07 04:05:21;;;;;;;;;;;3.10;82.90;;;;;;5077932;28;19924;-62
2024/03/07 04:07:55;;;;;;;;;;;3.10;83.00;;;;;;5078029;28;19924;-63
2024/03/07 04:13:34;;;;;;;;;;;3.20;83.20;;;;;;5074482;28;19935;-62
2024/03/07 04:16:08;;;;;;;;;;;3.10;83.50;;;;;;5072413;28;21207;-62
2024/03/07 04:18:41;;;;;;;;;;;3.10;83.70;;;;;;5074604;28;20371;-64
2024/03/07 04:21:14;;;;;;;;;;;3.10;84.00;;;;;;5076032;28;19954;-63
2024/03/07 04:23:47;;;;;;;;;;;3.10;84.00;;;;;;5074942;28;19924;-62
2024/03/07 04:26:20;;;;;;;;;;;3.10;84.10;;;;;;5076178;28;19935;-63
2024/03/07 04:28:54;;;;;;;;;;;3.10;84.00;;;;;;5074691;28;19932;-62
2024/03/07 04:31:28;;;;;;;;;;;3.10;84.00;;;;;;5078471;28;20375;-62
2024/03/07 04:34:01;;;;;;;;;;;3.20;84.10;;;;;;5073561;28;19924;-63
2024/03/07 04:36:34;;;;;;;;;;;3.20;84.00;;;;;;5073947;28;19929;-65
2024/03/07 04:39:24;;;;;;;;;;;3.10;83.90;;;;;;5075245;28;19928;-63
2024/03/07 04:41:57;;;;;;;;;;;3.20;84.10;;;;;;5074875;28;19990;-63
2024/03/07 04:44:32;;;;;;;;;;;3.10;84.30;;;;;;5076108;28;19931;-62
2024/03/07 04:47:06;;;;;;;;;;;3.10;84.60;;;;;;5074191;28;19934;-62
2024/03/07 04:49:40;;;;;;;;;;;3.10;84.60;;;;;;5074604;28;19931;-63
2024/03/07 04:52:13;;;;;;;;;;;3.20;84.70;;;;;;5077093;28;19955;-64
2024/03/07 04:54:46;;;;;;;;;;;3.20;84.70;;;;;;5074981;28;19928;-63
2024/03/07 04:57:19;;;;;;;;;;;3.20;84.90;;;;;;5068974;28;19932;-62
2024/03/07 04:59:54;;;;;;;;;;;3.20;84.90;;;;;;5072901;28;19930;-64
2024/03/07 05:02:27;;;;;;;;;;;3.20;85.20;;;;;;5075222;28;19932;-63
2024/03/07 05:05:00;;;;;;;;;;;3.20;84.90;;;;;;5066310;28;19932;-64
2024/03/07 05:07:33;;;;;;;;;;;3.10;85.30;;;;;;5059644;28;20019;-62
2024/03/07 05:10:07;;;;;;;;;;;3.20;85.30;;;;;;5058786;28;19935;-63
2024/03/07 05:12:40;;;;;;;;;;;3.20;85.30;;;;;;5073702;28;19934;-63
2024/03/07 05:15:15;;;;;;;;;;;3.20;85.40;;;;;;5057851;28;19933;-62
2024/03/07 05:17:48;;;;;;;;;;;3.30;85.40;;;;;;5071589;28;19936;-62
2024/03/07 05:20:21;;;;;;;;;;;3.40;85.20;;;;;;5072704;28;19924;-63
2024/03/07 05:22:54;;;;;;;;;;;3.40;85.40;;;;;;5064439;28;19928;-62
2024/03/07 05:25:27;;;;;;;;;;;3.30;85.10;;;;;;5068586;28;20405;-62
2024/03/07 05:28:02;;;;;;;;;;;3.30;85.00;;;;;;5072945;28;20387;-62
2024/03/07 05:30:36;;;;;;;;;;;3.20;84.80;;;;;;5069394;28;19932;-63
2024/03/07 05:33:10;;;;;;;;;;;3.20;84.80;;;;;;5069816;28;19924;-62
2024/03/07 05:35:43;;;;;;;;;;;3.20;84.60;;;;;;5074036;28;20006;-63
2024/03/07 05:38:18;;;;;;;;;;;3.10;84.60;;;;;;5075864;28;20019;-62
2024/03/07 05:40:51;;;;;;;;;;;3.10;84.50;;;;;;5071447;28;19928;-64
2024/03/07 05:43:24;;;;;;;;;;;3.00;84.50;;;;;;5070675;28;19936;-64
2024/03/07 05:46:00;;;;;;;;;;;3.00;84.60;;;;;;5066257;28;20015;-64
2024/03/07 05:48:33;;;;;;;;;;;3.00;84.60;;;;;;5071377;28;19925;-62
2024/03/07 05:51:06;;;;;;;;;;;3.00;84.70;;;;;;5070591;28;20000;-62
2024/03/07 05:53:40;;;;;;;;;;;3.00;84.80;;;;;;5073230;28;19924;-63
2024/03/07 05:56:14;;;;;;;;;;;3.00;84.80;;;;;;5072286;28;19932;-62
2024/03/07 05:58:47;;;;;;;;;;;3.00;84.90;;;;;;5067867;28;19987;-62
2024/03/07 06:01:23;;;;;;;;;;;3.00;85.10;;;;;;5065973;28;20169;-63
2024/03/07 06:03:58;;;;;;;;;;;3.00;85.30;;;;;;5068596;28;20290;-62
2024/03/07 06:06:31;;;;;;;;;;;3.00;85.40;;;;;;5077019;28;19998;-62
2024/03/07 06:09:08;;;;;;;;;;;3.00;85.30;;;;;;5071195;28;19968;-62
2024/03/07 06:11:42;;;;;;;;;;;3.10;85.50;;;;;;5076664;28;20018;-62
2024/03/07 06:14:16;;;;;;;;;;;3.10;85.50;;;;;;5069572;28;20020;-63
2024/03/07 06:16:51;;;;;;;;;;;3.10;85.40;;;;;;5074428;28;19924;-63
2024/03/07 06:19:24;;;;;;;;;;;3.10;85.50;;;;;;5074723;28;19928;-62
2024/03/07 06:21:57;;;;;;;;;;;3.10;85.40;;;;;;5068815;28;19924;-61
2024/03/07 06:24:27;;;;;;;;;;;3.10;85.40;;;;;;5075878;28;19928;-63
2024/03/07 06:27:03;;;;;;;;;;;3.10;85.30;;;;;;5069430;28;19967;-62
2024/03/07 06:29:36;;;;;;;;;;;3.20;85.20;;;;;;5085159;28;19939;-62
2024/03/07 06:32:11;;;;;;;;;;;3.10;85.10;;;;;;5076275;28;19932;-61
2024/03/07 06:34:44;;;;;;;;;;;3.10;85.00;;;;;;5074531;28;19991;-64
2024/03/07 06:37:18;;;;;;;;;;;3.10;85.00;;;;;;5070673;28;20035;-63
2024/03/07 06:39:52;;;;;;;;;;;3.10;85.00;;;;;;5072013;28;19928;-61
2024/03/07 06:42:25;;;;;;;;;;;3.20;84.90;;;;;;5068112;28;19939;-62
2024/03/07 06:44:58;;;;;;;;;;;3.20;84.90;;;;;;5066940;28;20024;-62
2024/03/07 06:47:33;;;;;;;;;;;3.20;84.90;;;;;;5068871;28;19932;-63
2024/03/07 06:50:09;;;;;;;;;;;3.20;84.90;;;;;;5068809;28;19956;-62
2024/03/07 06:52:44;;;;;;;;;;;3.30;85.00;;;;;;5069587;28;19928;-62
2024/03/07 06:55:18;;;;;;;;;;;3.30;85.10;;;;;;5075965;28;19924;-62
2024/03/07 06:57:51;;;;;;;;;;;3.30;85.30;;;;;;5073664;28;19938;-71
2024/03/07 07:00:27;;;;;;;;;;;3.30;85.50;;;;;;5060174;28;20002;-71
2024/03/07 07:03:04;;;;;;;;;;;3.40;85.70;;;;;;5070580;28;19963;-71
2024/03/07 07:05:38;;;;;;;;;;;3.50;85.40;;;;;;5069321;28;20516;-71
2024/03/07 07:08:13;;;;;;;;;;;3.50;85.50;;;;;;5065825;28;19928;-71
2024/03/07 07:10:49;;;;;;;;;;;3.50;85.50;;;;;;5076018;28;19928;-71
2024/03/07 07:13:22;;;;;;;;;;;3.60;85.60;;;;;;5075982;28;20372;-72
2024/03/07 07:15:49;;;;;;;;;;;3.70;85.50;;;;;;5071629;28;19935;-72
2024/03/07 07:18:24;;;;;;;;;;;3.70;85.50;;;;;;5072104;28;19940;-70
2024/03/07 07:20:58;;;;;;;;;;;3.70;86.10;;;;;;5076873;28;19935;-70
2024/03/07 07:23:31;;;;;;;;;;;3.70;86.20;;;;;;5076622;28;19997;-71
2024/03/07 07:26:09;;;;;;;;;;;3.70;86.00;;;;;;5065802;28;19932;-72
2024/03/07 07:28:42;;;;;;;;;;;3.70;85.60;;;;;;5070105;28;19935;-71
2024/03/07 07:31:15;;;;;;;;;;;3.80;85.70;;;;;;5070146;28;19935;-71
2024/03/07 07:33:43;;;;;;;;;;;3.70;86.10;;;;;;5076519;28;19961;-71
2024/03/07 07:36:16;;;;;;;;;;;3.80;85.90;;;;;;5071376;28;20000;-71
2024/03/07 07:38:49;;;;;;;;;;;3.70;86.10;;;;;;5073351;28;19932;-71
2024/03/07 07:41:22;;;;;;;;;;;3.70;86.40;;;;;;5066096;28;20228;-71
2024/03/07 07:43:56;;;;;;;;;;;3.80;86.30;;;;;;5057206;28;19932;-71
2024/03/07 07:46:29;;;;;;;;;;;3.90;86.00;;;;;;5068793;28;19928;-70
2024/03/07 07:49:04;;;;;;;;;;;3.90;85.90;;;;;;5069604;28;20031;-70
2024/03/07 07:51:37;;;;;;;;;;;4.00;85.80;;;;;;5071222;28;19928;-71
2024/03/07 07:54:10;;;;;;;;;;;4.10;86.00;;;;;;5074713;28;20283;-71
2024/03/07 07:56:43;;;;;;;;;;;4.10;85.80;;;;;;5077978;28;19928;-72
2024/03/07 07:59:16;;;;;;;;;;;4.20;86.00;;;;;;5070028;28;19935;-71
2024/03/07 08:01:50;;;;;;;;;;;4.20;86.10;;;;;;5065143;28;19935;-72
2024/03/07 08:04:25;;;;;;;;;;;4.20;86.40;;;;;;5072850;28;19931;-70
2024/03/07 08:07:07;;;;;;;;;;;4.40;86.20;;;;;;5069587;28;20940;-58
2024/03/07 08:09:40;;;;;;;;;;;4.40;86.10;;;;;;5072404;28;19963;-58
2024/03/07 08:12:14;;;;;;;;;;;4.50;86.10;;;;;;5077038;28;19932;-59
2024/03/07 08:14:47;;;;;;;;;;;4.50;86.10;;;;;;5069348;28;19933;-59
2024/03/07 08:17:20;;;;;;;;;;;4.50;86.00;;;;;;5065133;28;19935;-60
2024/03/07 08:19:55;;;;;;;;;;;4.60;85.80;;;;;;5068435;28;19938;-61
2024/03/07 08:22:28;;;;;;;;;;;4.70;85.90;;;;;;5076871;28;20152;-59
2024/03/07 08:25:08;;;;;;;;;;;4.70;85.80;;;;;;5074063;28;19956;-58
2024/03/07 08:27:42;;;;;;;;;;;4.80;86.00;;;;;;5068360;28;20732;-59
2024/03/07 08:30:12;;;;;;;;;;;4.90;85.90;;;;;;5067963;28;19933;-60
2024/03/07 08:32:46;;;;;;;;;;;4.90;85.90;;;;;;5070858;28;19951;-57
2024/03/07 08:35:15;;;;;;;;;;;4.90;85.90;;;;;;5077004;28;19928;-60
2024/03/07 08:37:52;;;;;;;;;;;4.90;86.00;;;;;;5070341;28;19930;-59
2024/03/07 08:40:26;;;;;;;;;;;5.00;85.60;;;;;;5070103;28;20387;-59
2024/03/07 08:43:00;;;;;;;;;;;5.00;85.90;;;;;;5066432;28;19929;-59
2024/03/07 08:45:33;;;;;;;;;;;5.00;85.90;;;;;;5066903;28;20007;-58
2024/03/07 08:48:08;;;;;;;;;;;5.10;85.80;;;;;;5069949;28;19929;-59
2024/03/07 08:50:43;;;;;;;;;;;5.20;85.80;;;;;;5068429;28;19929;-61
2024/03/07 08:53:18;;;;;;;;;;;5.20;85.70;;;;;;5070265;28;20426;-58
2024/03/07 08:55:51;;;;;;;;;;;5.20;85.60;;;;;;5072031;28;19925;-59
2024/03/07 08:58:24;;;;;;;;;;;5.30;85.50;;;;;;5068481;28;20578;-59
2024/03/07 09:00:58;;;;;;;;;;;5.30;85.60;;;;;;5071530;28;20318;-58
2024/03/07 09:03:31;;;;;;;;;;;5.40;85.50;;;;;;5071294;28;20726;-59
2024/03/07 09:06:06;;;;;;;;;;;5.40;85.30;;;;;;5065710;28;21385;-59
2024/03/07 09:08:39;;;;;;;;;;;5.40;85.50;;;;;;5067734;28;20017;-59
2024/03/07 09:11:13;;;;;;;;;;;5.40;85.70;;;;;;5070396;28;20030;-59
2024/03/07 09:13:47;;;;;;;;;;;5.40;85.50;;;;;;5070857;28;20513;-61
2024/03/07 09:16:20;;;;;;;;;;;5.50;85.40;;;;;;5064919;28;20434;-59
2024/03/07 09:18:55;;;;;;;;;;;5.60;85.20;;;;;;5066945;28;19930;-71
2024/03/07 09:21:29;;;;;;;;;;;5.70;84.80;;;;;;5065624;28;19932;-73
2024/03/07 09:23:56;;;;;;;;;;;5.70;84.70;;;;;;5070141;28;19932;-69
2024/03/07 09:26:29;;;;;;;;;;;5.80;84.40;;;;;;5073177;28;19930;-72
2024/03/07 09:29:05;;;;;;;;;;;5.80;84.20;;;;;;5070868;28;20349;-71
2024/03/07 09:31:40;;;;;;;;;;;5.90;83.90;;;;;;5074705;28;19936;-71
2024/03/07 09:34:14;;;;;;;;;;;5.90;83.70;;;;;;5072489;28;19939;-72
2024/03/07 09:36:49;;;;;;;;;;;6.00;83.70;;;;;;5075878;28;19932;-71
2024/03/07 09:39:22;;;;;;;;;;;6.00;83.20;;;;;;5073730;28;19931;-71
2024/03/07 09:41:56;;;;;;;;;;;6.10;83.40;;;;;;5072068;28;19929;-72
2024/03/07 09:44:30;;;;;;;;;;;6.10;83.20;;;;;;5079091;28;19934;-71
2024/03/07 09:47:04;;;;;;;;;;;6.30;83.10;;;;;;5074602;28;19932;-71
2024/03/07 09:49:37;;;;;;;;;;;6.30;82.90;;;;;;5077249;28;19973;-72
2024/03/07 09:52:12;;;;;;;;;;;6.40;82.90;;;;;;5075984;28;19925;-71
2024/03/07 09:54:45;;;;;;;;;;;6.50;82.60;;;;;;5077182;28;19978;-70
2024/03/07 09:57:18;;;;;;;;;;;6.50;82.50;;;;;;5070021;28;20019;-71
2024/03/07 09:59:54;;;;;;;;;;;6.60;82.50;;;;;;5074777;28;19924;-72
2024/03/07 10:02:27;;;;;;;;;;;6.70;82.30;;;;;;5072560;28;19936;-71
2024/03/07 10:05:01;;;;;;;;;;;6.80;82.10;;;;;;5073413;28;19956;-72
2024/03/07 10:07:43;;;;;;;;;;;6.90;82.00;;;;;;5073701;28;19977;-73
2024/03/07 10:10:17;;;;;;;;;;;7.00;81.70;;;;;;5073871;28;20296;-71
2024/03/07 10:12:52;;;;;;;;;;;7.10;81.50;;;;;;5076364;28;19928;-70
2024/03/07 10:15:28;;;;;;;;;;;7.20;81.30;;;;;;5074634;28;19972;-72
2024/03/07 10:18:01;;;;;;;;;;;7.20;81.10;;;;;;5074402;28;19952;-72
2024/03/07 10:20:35;;;;;;;;;;;7.30;80.90;;;;;;5073885;28;19969;-72
2024/03/07 10:23:10;;;;;;;;;;;7.30;80.60;;;;;;5073598;28;19928;-71
2024/03/07 10:25:44;;;;;;;;;;;7.30;80.30;;;;;;5074887;28;19934;-72
2024/03/07 10:28:17;;;;;;;;;;;7.30;80.40;;;;;;5073996;28;20629;-58
2024/03/07 10:30:51;;;;;;;;;;;7.40;80.00;;;;;;5070258;28;19982;-57
2024/03/07 10:33:27;;;;;;;;;;;7.40;80.00;;;;;;5069263;28;19925;-58
2024/03/07 10:36:01;;;;;;;;;;;7.50;79.50;;;;;;5072463;28;19928;-58
2024/03/07 10:38:36;;;;;;;;;;;7.70;79.30;;;;;;5073597;28;19927;-58
2024/03/07 10:41:10;;;;;;;;;;;7.80;78.70;;;;;;5073906;28;19940;-63
2024/03/07 10:43:45;;;;;;;;;;;7.90;78.50;;;;;;5079478;28;19925;-59
2024/03/07 10:46:20;;;;;;;;;;;7.90;78.10;;;;;;5078999;28;19959;-57
2024/03/07 10:48:56;;;;;;;;;;;8.10;78.10;;;;;;5074769;28;19985;-59
2024/03/07 10:51:34;;;;;;;;;;;8.10;77.90;;;;;;5077303;28;19971;-58
2024/03/07 10:54:14;;;;;;;;;;;8.20;77.70;;;;;;5079350;28;20037;-58
2024/03/07 10:56:51;;;;;;;;;;;8.30;77.40;;;;;;5076058;28;19938;-59
2024/03/07 10:59:26;;;;;;;;;;;8.30;77.40;;;;;;5077480;28;20265;-58
2024/03/07 11:02:06;;;;;;;;;;;8.40;76.80;;;;;;5075504;28;20011;-60
2024/03/07 11:04:40;;;;;;;;;;;8.50;76.70;;;;;;5080723;28;19985;-57
2024/03/07 11:07:13;;;;;;;;;;;8.60;76.80;;;;;;5078819;28;20345;-58
2024/03/07 11:09:51;;;;;;;;;;;8.60;77.00;;;;;;5077735;28;19924;-58
2024/03/07 11:12:27;;;;;;;;;;;8.70;76.50;;;;;;5077862;28;19935;-58
2024/03/07 11:15:01;;;;;;;;;;;8.70;76.30;;;;;;5078120;28;20010;-59
2024/03/07 11:17:30;;;;;;;;;;;8.80;76.00;;;;;;5078313;28;19936;-59
2024/03/07 11:20:20;;;;;;;;;;;8.90;75.90;;;;;;5072343;28;19931;-59
2024/03/07 11:22:55;;;;;;;;;;;9.00;76.00;;;;;;5077314;28;19966;-59
2024/03/07 11:25:29;;;;;;;;;;;9.00;75.50;;;;;;5078870;28;19935;-58
2024/03/07 11:28:03;;;;;;;;;;;9.30;75.00;;;;;;5076267;28;19981;-59
2024/03/07 11:30:38;;;;;;;;;;;9.50;74.40;;;;;;5076064;28;19928;-58
2024/03/07 11:33:14;;;;;;;;;;;9.50;74.30;;;;;;5077881;28;19978;-59
2024/03/07 11:35:49;;;;;;;;;;;9.50;74.20;;;;;;5075113;28;19966;-57
2024/03/07 11:38:34;;;;;;;;;;;9.40;74.80;;;;;;5077552;28;19928;-64
2024/03/07 11:41:13;;;;;;;;;;;9.30;74.90;;;;;;5077328;28;19963;-64
2024/03/07 11:43:47;;;;;;;;;;;9.20;74.80;;;;;;5075045;28;20059;-64
2024/03/07 11:46:21;;;;;;;;;;;9.20;74.90;;;;;;5076238;28;19964;-64
2024/03/07 11:48:59;;;;;;;;;;;9.20;74.20;;;;;;5072259;28;20010;-65
2024/03/07 11:51:35;;;;;;;;;;;9.20;74.00;;;;;;5078518;28;20416;-64
2024/03/07 11:54:08;;;;;;;;;;;9.20;74.00;;;;;;5077817;28;20023;-63
2024/03/07 11:56:44;;;;;;;;;;;9.20;73.90;;;;;;5074408;28;19939;-64
2024/03/07 11:59:16;;;;;;;;;;;9.10;73.40;;;;;;5074529;28;20409;-64
2024/03/07 12:01:49;;;;;;;;;;;9.10;73.60;;;;;;5076164;28;20001;-64
2024/03/07 12:04:23;;;;;;;;;;;9.10;73.50;;;;;;5076460;28;19925;-64
2024/03/07 12:07:11;;;;;;;;;;;9.10;73.60;;;;;;5077696;28;20269;-65
2024/03/07 12:09:55;;;;;;;;;;;9.10;73.70;;;;;;5078252;28;20460;-64
2024/03/07 12:12:30;;;;;;;;;;;9.10;73.60;;;;;;5074794;28;19924;-65
2024/03/07 12:15:09;;;;;;;;;;;9.00;73.40;;;;;;5074522;28;19946;-64
2024/03/07 12:17:43;;;;;;;;;;;9.00;73.50;;;;;;5077330;28;20379;-64
2024/03/07 12:20:27;;;;;;;;;;;8.90;73.50;;;;;;5070125;28;19938;-64
2024/03/07 12:23:02;;;;;;;;;;;8.90;73.70;;;;;;5076204;28;20015;-65
2024/03/07 12:25:36;;;;;;;;;;;8.90;73.40;;;;;;5075752;28;20402;-67
2024/03/07 12:28:11;;;;;;;;;;;8.90;73.50;;;;;;5072916;28;20295;-64
2024/03/07 12:30:51;;;;;;;;;;;8.90;73.60;;;;;;5076198;28;19925;-64
2024/03/07 12:33:25;;;;;;;;;;;8.90;73.60;;;;;;5076477;28;19932;-65
2024/03/07 12:36:05;;;;;;;;;;;8.90;73.30;;;;;;5073327;28;20333;-63
2024/03/07 12:38:40;;;;;;;;;;;8.90;72.70;;;;;;5076332;28;19969;-64
2024/03/07 12:41:45;;;;;;;;;;;8.90;72.80;;;;;;5074808;28;19937;-64
2024/03/07 12:44:20;;;;;;;;;;;8.80;72.90;;;;;;5072203;28;20005;-64
2024/03/07 12:46:55;;;;;;;;;;;8.80;72.80;;;;;;5077200;28;19968;-72
2024/03/07 12:49:30;;;;;;;;;;;8.80;72.40;;;;;;5077648;28;19985;-71
2024/03/07 12:52:02;;;;;;;;;;;8.80;70.80;;;;;;5077308;28;19932;-73
2024/03/07 12:54:37;;;;;;;;;;;8.80;70.20;;;;;;5079943;28;19924;-73
2024/03/07 12:57:10;;;;;;;;;;;8.80;70.00;;;;;;5076276;28;20811;-72
2024/03/07 12:59:45;;;;;;;;;;;8.90;70.90;;;;;;5077079;28;20027;-73
2024/03/07 13:02:18;;;;;;;;;;;8.90;70.00;;;;;;5077101;28;19932;-72
2024/03/07 13:04:51;;;;;;;;;;;8.90;69.60;;;;;;5076818;28;20019;-71
2024/03/07 13:07:24;;;;;;;;;;;8.90;69.00;;;;;;5078665;28;20491;-71
2024/03/07 13:09:57;;;;;;;;;;;9.00;69.60;;;;;;5078289;28;20015;-71
2024/03/07 13:12:33;;;;;;;;;;;9.10;69.00;;;;;;5079866;28;20330;-74
2024/03/07 13:15:10;;;;;;;;;;;9.10;68.80;;;;;;5077696;28;19930;-73
2024/03/07 13:17:44;;;;;;;;;;;9.20;67.80;;;;;;5078804;28;19981;-73
2024/03/07 13:20:21;;;;;;;;;;;9.20;68.00;;;;;;5072839;28;19928;-74
2024/03/07 13:22:56;;;;;;;;;;;9.30;67.40;;;;;;5075905;28;19935;-71
2024/03/07 13:25:32;;;;;;;;;;;9.30;67.30;;;;;;5075756;28;19928;-71
2024/03/07 13:28:08;;;;;;;;;;;9.30;66.80;;;;;;5075739;28;19928;-72
2024/03/07 13:30:44;;;;;;;;;;;9.40;66.80;;;;;;5075493;28;19924;-74
2024/03/07 13:33:17;;;;;;;;;;;9.30;65.90;;;;;;5075584;28;19932;-71
2024/03/07 13:35:51;;;;;;;;;;;9.30;66.10;;;;;;5077938;28;19924;-76
2024/03/07 13:38:25;;;;;;;;;;;9.30;66.10;;;;;;5073922;28;19931;-73
2024/03/07 13:40:58;;;;;;;;;;;9.30;66.90;;;;;;5075315;28;19928;-72
2024/03/07 13:43:33;;;;;;;;;;;9.20;66.60;;;;;;5073976;28;19928;-73
2024/03/07 13:46:08;;;;;;;;;;;9.20;67.00;;;;;;5070821;28;19934;-73
2024/03/07 13:48:43;;;;;;;;;;;9.30;66.90;;;;;;5077512;28;19924;-71
2024/03/07 13:51:16;;;;;;;;;;;9.30;67.20;;;;;;5075322;28;19973;-71
2024/03/07 13:54:00;;;;;;;;;;;9.30;67.00;;;;;;5078220;28;19950;-71
2024/03/07 13:56:40;;;;;;;;;;;9.30;67.10;;;;;;5075905;28;19932;-72
2024/03/07 13:59:30;;;;;;;;;;;9.40;67.60;;;;;;5074287;28;19939;-64
2024/03/07 14:02:11;;;;;;;;;;;9.40;66.80;;;;;;5077066;28;19947;-65
2024/03/07 14:05:02;;;;;;;;;;;9.30;65.30;;;;;;5073388;28;19936;-64
2024/03/07 14:07:43;;;;;;;;;;;9.30;64.70;;;;;;5074723;28;19932;-65
2024/03/07 14:10:36;;;;;;;;;;;9.30;64.80;;;;;;5074804;28;19928;-64
2024/03/07 14:13:20;;;;;;;;;;;9.40;63.70;;;;;;5073352;28;19924;-64
2024/03/07 14:16:11;;;;;;;;;;;9.40;64.50;;;;;;5076054;28;20456;-66
2024/03/07 14:19:03;;;;;;;;;;;9.40;65.00;;;;;;5079746;28;19931;-65
2024/03/07 14:22:00;;;;;;;;;;;9.50;65.50;;;;;;5079128;28;19924;-64
2024/03/07 14:24:46;;;;;;;;;;;9.50;65.50;;;;;;5076267;28;19985;-65
2024/03/07 14:27:24;;;;;;;;;;;9.50;64.70;;;;;;5074276;28;20517;-65
2024/03/07 14:30:06;;;;;;;;;;;9.60;65.00;;;;;;5075304;28;20380;-63
2024/03/07 14:32:39;;;;;;;;;;;9.60;64.00;;;;;;5079157;28;19963;-64
2024/03/07 14:35:18;;;;;;;;;;;9.60;63.90;;;;;;5078029;28;19928;-66
2024/03/07 14:37:55;;;;;;;;;;;9.60;64.40;;;;;;5079820;28;20020;-64
2024/03/07 14:40:34;;;;;;;;;;;9.60;63.30;;;;;;5077257;28;20014;-65
2024/03/07 14:43:07;;;;;;;;;;;9.60;63.20;;;;;;5076689;28;20363;-65
2024/03/07 14:45:41;;;;;;;;;;;9.60;63.70;;;;;;5078120;28;20267;-65
2024/03/07 14:48:17;;;;;;;;;;;9.70;63.70;;;;;;5074373;28;19935;-65
2024/03/07 14:50:51;;;;;;;;;;;9.60;63.90;;;;;;5080955;28;19997;-65
2024/03/07 14:53:25;;;;;;;;;;;9.70;63.30;;;;;;5078597;28;19928;-64
2024/03/07 14:55:59;;;;;;;;;;;9.70;63.90;;;;;;5077628;28;19924;-65
2024/03/07 14:58:31;;;;;;;;;;;9.70;62.70;;;;;;5078391;28;19924;-66
2024/03/07 15:01:06;;;;;;;;;;;9.70;63.30;;;;;;5074901;28;19939;-65
2024/03/07 15:03:39;;;;;;;;;;;9.60;62.90;;;;;;5079867;28;19928;-65
2024/03/07 15:06:14;;;;;;;;;;;9.60;63.00;;;;;;5077782;28;20572;-65
2024/03/07 15:08:49;;;;;;;;;;;9.60;63.50;;;;;;5077093;28;19928;-66
2024/03/07 15:11:27;;;;;;;;;;;9.60;63.00;;;;;;5078569;28;19924;-65
2024/03/07 15:14:01;;;;;;;;;;;9.60;63.00;;;;;;5077021;28;19935;-65
2024/03/07 15:16:37;;;;;;;;;;;9.60;63.10;;;;;;5079576;28;19924;-65
2024/03/07 15:19:10;;;;;;;;;;;9.60;62.90;;;;;;5077888;28;19924;-65
2024/03/07 15:21:43;;;;;;;;;;;9.60;63.20;;;;;;5076956;28;20375;-64